createdAt,value
2023-03-02T00:02:13.357Z,0.59
2023-03-02T00:04:48.524Z,0.64
2023-03-02T00:07:22.052Z,0.65
2023-03-02T00:09:50.964Z,0.62
2023-03-02T00:12:19.534Z,0.58
2023-03-02T00:14:48.121Z,0.54
2023-03-02T00:17:17.114Z,0.51
2023-03-02T00:19:45.692Z,0.45
2023-03-02T00:22:16.836Z,0.27
2023-03-02T00:24:45.528Z,0.08
2023-03-02T00:27:14.119Z,0.05
2023-03-02T00:29:42.829Z,-0.06
2023-03-02T00:32:18.434Z,-0.10
2023-03-02T00:34:47.129Z,-0.21
2023-03-02T00:37:16.262Z,-0.25
2023-03-02T00:39:45.243Z,-0.20
2023-03-02T00:42:13.750Z,-0.23
2023-03-02T00:44:42.510Z,-0.26
2023-03-02T00:47:11.068Z,-0.29
2023-03-02T00:49:39.750Z,-0.32
2023-03-02T00:52:09.327Z,-0.41
2023-03-02T00:54:38.251Z,-0.49
2023-03-02T00:57:07.031Z,-0.55
2023-03-02T00:59:39.011Z,-0.65
2023-03-02T01:02:17.867Z,-0.71
2023-03-02T01:04:47.152Z,-0.66
2023-03-02T01:07:21.011Z,-0.66
2023-03-02T01:09:49.465Z,-0.68
2023-03-02T01:12:18.561Z,-0.76
2023-03-02T01:14:49.280Z,-0.70
2023-03-02T01:17:18.233Z,-0.66
2023-03-02T01:19:46.973Z,-0.65
2023-03-02T01:22:15.553Z,-0.68
2023-03-02T01:24:44.101Z,-0.57
2023-03-02T01:27:12.671Z,-0.54
2023-03-02T01:29:41.821Z,-0.63
2023-03-02T01:32:10.292Z,-0.66
2023-03-02T01:34:39.964Z,-0.67
2023-03-02T01:37:08.552Z,-0.62
2023-03-02T01:39:37.125Z,-0.68
2023-03-02T01:42:05.761Z,-0.58
2023-03-02T01:44:36.573Z,-0.69
2023-03-02T01:47:32.872Z,-0.73
2023-03-02T01:50:17.229Z,-0.75
2023-03-02T01:52:46.971Z,-0.84
2023-03-02T01:55:17.363Z,-0.81
2023-03-02T01:57:50.269Z,-0.81
2023-03-02T02:00:24.901Z,-0.79
2023-03-02T02:02:55.039Z,-0.76
2023-03-02T02:05:27.170Z,-0.71
2023-03-02T02:07:55.725Z,-0.68
2023-03-02T02:10:24.634Z,-0.63
2023-03-02T02:12:53.206Z,-0.62
2023-03-02T02:15:21.802Z,-0.67
2023-03-02T02:17:52.239Z,-0.67
2023-03-02T02:20:45.335Z,-0.69
2023-03-02T02:23:29.639Z,-0.66
2023-03-02T02:26:27.101Z,-0.61
2023-03-02T02:29:08.273Z,-0.57
2023-03-02T02:31:49.233Z,-0.56
2023-03-02T02:34:25.306Z,-0.51
2023-03-02T02:37:09.043Z,-0.42
2023-03-02T02:39:44.895Z,-0.33
2023-03-02T02:42:29.046Z,-0.24
2023-03-02T02:45:06.639Z,-0.16
2023-03-02T02:47:35.468Z,-0.09
2023-03-02T02:50:05.203Z,-0.04
2023-03-02T02:52:33.544Z,-0.04
2023-03-02T02:55:03.186Z,0.00
2023-03-02T02:57:31.940Z,0.04
2023-03-02T03:00:01.919Z,0.07
2023-03-02T03:02:43.918Z,0.11
2023-03-02T03:05:18.035Z,0.15
2023-03-02T03:07:47.246Z,0.19
2023-03-02T03:10:45.644Z,0.22
2023-03-02T03:13:14.714Z,0.27
2023-03-02T03:15:44.456Z,0.29
2023-03-02T03:18:13.662Z,0.31
2023-03-02T03:20:43.327Z,0.31
2023-03-02T03:23:12.932Z,0.34
2023-03-02T03:25:45.252Z,0.37
2023-03-02T03:28:13.885Z,0.38
2023-03-02T03:30:42.717Z,0.34
2023-03-02T03:33:14.328Z,0.08
2023-03-02T03:35:43.051Z,-0.02
2023-03-02T03:38:11.648Z,-0.23
2023-03-02T03:40:40.419Z,-0.27
2023-03-02T03:43:09.562Z,-0.26
2023-03-02T03:45:38.162Z,-0.39
2023-03-02T03:48:07.434Z,-0.35
2023-03-02T03:50:36.877Z,-0.35
2023-03-02T03:53:05.315Z,-0.23
2023-03-02T03:55:34.637Z,-0.19
2023-03-02T03:58:03.332Z,-0.26
2023-03-02T04:00:31.818Z,-0.36
2023-03-02T04:03:04.130Z,-0.31
2023-03-02T04:05:34.276Z,-0.25
2023-03-02T04:08:04.507Z,-0.15
2023-03-02T04:10:34.252Z,-0.04
2023-03-02T04:13:03.699Z,-0.00
2023-03-02T04:15:32.721Z,-0.06
2023-03-02T04:18:02.846Z,-0.13
2023-03-02T04:20:32.869Z,-0.16
2023-03-02T04:23:01.565Z,-0.29
2023-03-02T04:25:31.035Z,-0.28
2023-03-02T04:28:04.605Z,-0.39
2023-03-02T04:30:37.853Z,-0.51
2023-03-02T04:33:06.545Z,-0.68
2023-03-02T04:35:37.026Z,-0.72
2023-03-02T04:38:05.961Z,-0.68
2023-03-02T04:40:34.693Z,-0.74
2023-03-02T04:43:03.168Z,-0.83
2023-03-02T04:45:31.880Z,-0.74
2023-03-02T04:48:00.453Z,-0.63
2023-03-02T04:50:28.982Z,-0.58
2023-03-02T04:52:57.702Z,-0.61
2023-03-02T04:55:27.932Z,-0.67
2023-03-02T04:57:56.541Z,-0.56
2023-03-02T05:00:25.535Z,-0.46
2023-03-02T05:02:54.066Z,-0.35
2023-03-02T05:05:25.024Z,-0.33
2023-03-02T05:07:54.120Z,-0.27
2023-03-02T05:10:23.792Z,-0.16
2023-03-02T05:12:58.026Z,-0.11
2023-03-02T05:15:31.329Z,-0.04
2023-03-02T05:18:00.178Z,-0.11
2023-03-02T05:20:30.542Z,-0.10
2023-03-02T05:23:03.995Z,-0.05
2023-03-02T05:25:35.569Z,-0.06
2023-03-02T05:28:05.748Z,0.01
2023-03-02T05:30:38.011Z,0.08
2023-03-02T05:33:06.716Z,0.05
2023-03-02T05:35:35.540Z,-0.02
2023-03-02T05:38:05.352Z,0.02
2023-03-02T05:40:34.045Z,0.07
2023-03-02T05:43:03.035Z,0.14
2023-03-02T05:45:36.305Z,0.19
2023-03-02T05:48:09.353Z,0.07
2023-03-02T05:50:38.100Z,0.09
2023-03-02T05:53:06.918Z,0.11
2023-03-02T05:55:37.465Z,0.14
2023-03-02T05:58:18.604Z,0.21
2023-03-02T06:00:50.590Z,0.31
2023-03-02T06:03:20.203Z,0.35
2023-03-02T06:05:51.187Z,0.38
2023-03-02T06:08:22.045Z,0.42
2023-03-02T06:10:51.117Z,0.53
2023-03-02T06:13:19.562Z,0.55
2023-03-02T06:15:48.247Z,0.64
2023-03-02T06:18:17.202Z,0.73
2023-03-02T06:20:45.732Z,0.84
2023-03-02T06:23:14.533Z,0.92
2023-03-02T06:25:48.392Z,0.97
2023-03-02T06:28:20.141Z,0.94
2023-03-02T06:30:50.125Z,0.95
2023-03-02T06:33:21.633Z,0.96
2023-03-02T06:35:50.599Z,0.88
2023-03-02T06:38:19.166Z,1.00
2023-03-02T06:40:47.866Z,1.09
2023-03-02T06:43:16.642Z,1.20
2023-03-02T06:45:47.823Z,1.26
2023-03-02T06:48:16.618Z,1.32
2023-03-02T06:50:45.126Z,1.35
2023-03-02T06:53:15.525Z,1.41
2023-03-02T06:55:44.833Z,1.40
2023-03-02T06:58:13.725Z,1.50
2023-03-02T07:00:43.191Z,1.57
2023-03-02T07:03:13.670Z,1.59
2023-03-02T07:05:43.922Z,1.62
2023-03-02T07:08:13.789Z,1.70
2023-03-02T07:10:42.434Z,1.80
2023-03-02T07:13:10.876Z,1.90
2023-03-02T07:15:42.612Z,1.98
2023-03-02T07:18:11.195Z,2.03
2023-03-02T07:20:39.832Z,2.01
2023-03-02T07:23:08.454Z,1.86
2023-03-02T07:25:37.370Z,1.86
2023-03-02T07:28:06.122Z,1.85
2023-03-02T07:30:34.700Z,1.87
2023-03-02T07:33:03.457Z,1.95
2023-03-02T07:35:32.090Z,2.05
2023-03-02T07:38:00.697Z,2.18
2023-03-02T07:40:30.346Z,2.28
2023-03-02T07:42:59.000Z,2.32
2023-03-02T07:45:27.598Z,2.29
2023-03-02T07:47:56.096Z,2.37
2023-03-02T07:50:24.689Z,2.47
2023-03-02T07:52:53.275Z,2.47
2023-03-02T07:55:21.997Z,2.57
2023-03-02T07:58:01.669Z,2.65
2023-03-02T08:00:31.637Z,2.73
2023-03-02T08:03:01.182Z,2.80
2023-03-02T08:05:31.246Z,2.85
2023-03-02T08:08:02.558Z,2.92
2023-03-02T08:10:35.867Z,2.98
2023-03-02T08:13:05.407Z,3.04
2023-03-02T08:15:34.057Z,3.08
2023-03-02T08:18:02.639Z,3.09
2023-03-02T08:20:31.562Z,3.12
2023-03-02T08:23:00.213Z,3.21
2023-03-02T08:25:28.634Z,3.29
2023-03-02T08:27:57.540Z,3.35
2023-03-02T08:30:26.180Z,3.40
2023-03-02T08:32:54.691Z,3.45
2023-03-02T08:35:23.380Z,3.50
2023-03-02T08:37:52.218Z,3.53
2023-03-02T08:40:21.697Z,3.62
2023-03-02T08:42:57.318Z,3.64
2023-03-02T08:45:26.508Z,3.63
2023-03-02T08:47:55.331Z,3.65
2023-03-02T08:50:33.087Z,3.64
2023-03-02T08:53:21.286Z,3.71
2023-03-02T08:55:55.837Z,3.71
2023-03-02T08:58:28.630Z,3.69
2023-03-02T09:01:04.293Z,3.75
2023-03-02T09:03:33.788Z,3.83
2023-03-02T09:06:02.468Z,3.91
2023-03-02T09:08:31.032Z,4.02
2023-03-02T09:10:59.692Z,4.02
2023-03-02T09:13:29.120Z,3.99
2023-03-02T09:15:57.842Z,4.04
2023-03-02T09:18:26.719Z,4.13
2023-03-02T09:20:57.369Z,4.24
2023-03-02T09:23:27.563Z,4.35
2023-03-02T09:25:58.867Z,4.39
2023-03-02T09:28:27.463Z,4.42
2023-03-02T09:31:01.456Z,4.49
2023-03-02T09:33:31.673Z,4.53
2023-03-02T09:36:01.778Z,4.59
2023-03-02T09:38:30.417Z,4.50
2023-03-02T09:41:12.718Z,4.59
2023-03-02T09:44:11.743Z,4.66
2023-03-02T09:47:34.904Z,4.65
2023-03-02T09:50:30.161Z,4.61
2023-03-02T09:54:14.031Z,4.61
2023-03-02T09:58:34.304Z,4.67
2023-03-02T10:02:54.331Z,4.57
2023-03-02T10:07:23.253Z,4.66
2023-03-02T10:11:50.348Z,4.62
2023-03-02T10:16:23.295Z,4.45
2023-03-02T10:20:44.725Z,4.34
2023-03-02T10:23:39.110Z,4.39
2023-03-02T10:26:13.961Z,4.44
2023-03-02T10:29:16.689Z,4.46
2023-03-02T10:31:47.505Z,4.56
2023-03-02T10:34:16.939Z,4.62
2023-03-02T10:36:48.043Z,4.67
2023-03-02T10:39:18.307Z,4.73
2023-03-02T10:42:09.603Z,4.85
2023-03-02T10:44:51.359Z,5.00
2023-03-02T10:47:30.077Z,5.11
2023-03-02T10:49:58.787Z,5.16
2023-03-02T10:52:29.582Z,5.14
2023-03-02T10:55:07.496Z,5.16
2023-03-02T10:57:44.215Z,5.15
2023-03-02T11:00:28.712Z,5.19
2023-03-02T11:03:01.929Z,5.26
2023-03-02T11:05:38.745Z,5.33
2023-03-02T11:08:18.460Z,5.36
2023-03-02T11:11:01.849Z,5.28
2023-03-02T11:13:33.722Z,5.23
2023-03-02T11:16:25.922Z,5.27
2023-03-02T11:19:01.269Z,5.37
2023-03-02T11:21:54.514Z,5.45
2023-03-02T11:24:37.120Z,5.55
2023-03-02T11:27:20.420Z,5.65
2023-03-02T11:29:57.617Z,5.72
2023-03-02T11:32:44.439Z,5.80
2023-03-02T11:35:18.181Z,5.89
2023-03-02T11:37:53.230Z,5.95
2023-03-02T11:40:33.590Z,5.92
2023-03-02T11:43:06.476Z,5.89
2023-03-02T11:45:42.534Z,5.96
2023-03-02T11:48:39.040Z,6.01
2023-03-02T11:51:36.251Z,6.04
2023-03-02T11:54:12.363Z,6.05
2023-03-02T11:56:42.235Z,6.05
2023-03-02T11:59:20.853Z,6.08
2023-03-02T12:01:55.012Z,6.16
2023-03-02T12:04:35.320Z,6.17
2023-03-02T12:07:26.329Z,6.31
2023-03-02T12:10:05.527Z,6.32
2023-03-02T12:12:41.261Z,6.33
2023-03-02T12:15:53.335Z,6.42
2023-03-02T12:18:22.132Z,6.52
2023-03-02T12:21:18.517Z,6.54
2023-03-02T12:23:58.570Z,6.57
2023-03-02T12:26:37.587Z,6.68
2023-03-02T12:29:11.626Z,6.75
2023-03-02T12:31:49.896Z,6.79
2023-03-02T12:34:25.017Z,6.80
2023-03-02T12:37:03.852Z,6.77
2023-03-02T12:39:44.161Z,6.69
2023-03-02T12:43:08.554Z,6.73
2023-03-02T12:46:04.847Z,6.80
2023-03-02T12:48:49.116Z,6.82
2023-03-02T12:51:23.369Z,6.80
2023-03-02T12:54:07.547Z,6.83
2023-03-02T12:56:36.438Z,6.91
2023-03-02T12:59:05.615Z,6.86
2023-03-02T13:01:34.961Z,6.75
2023-03-02T13:04:04.015Z,6.59
2023-03-02T13:06:36.812Z,6.64
2023-03-02T13:09:05.678Z,6.69
2023-03-02T13:11:37.632Z,6.73
2023-03-02T13:14:24.965Z,6.63
2023-03-02T13:17:03.891Z,6.58
2023-03-02T13:19:34.008Z,6.65
2023-03-02T13:22:04.764Z,6.75
2023-03-02T13:24:49.685Z,6.83
2023-03-02T13:27:22.401Z,6.87
2023-03-02T13:29:53.225Z,6.79
2023-03-02T13:32:36.281Z,6.86
2023-03-02T13:35:45.761Z,6.84
2023-03-02T13:38:18.842Z,6.80
2023-03-02T13:40:54.689Z,6.97
2023-03-02T13:43:29.501Z,7.10
2023-03-02T13:46:13.613Z,7.27
2023-03-02T13:49:07.484Z,7.36
2023-03-02T13:51:49.313Z,7.49
2023-03-02T13:54:34.230Z,7.49
2023-03-02T13:57:05.310Z,7.47
2023-03-02T13:59:36.779Z,7.35
2023-03-02T14:02:23.269Z,7.37
2023-03-02T14:04:52.641Z,7.65
2023-03-02T14:07:24.471Z,7.81
2023-03-02T14:09:55.923Z,7.87
2023-03-02T14:12:33.126Z,7.92
2023-03-02T14:15:04.979Z,7.98
2023-03-02T14:17:34.046Z,8.11
2023-03-02T14:20:02.608Z,8.14
2023-03-02T14:22:32.263Z,8.13
2023-03-02T14:25:00.876Z,8.07
2023-03-02T14:27:31.179Z,8.04
2023-03-02T14:30:01.173Z,7.92
2023-03-02T14:32:30.112Z,7.59
2023-03-02T14:34:58.862Z,7.45
2023-03-02T14:37:29.480Z,7.28
2023-03-02T14:39:58.267Z,7.21
2023-03-02T14:42:27.895Z,7.13
2023-03-02T14:44:56.433Z,6.94
2023-03-02T14:47:24.970Z,6.76
2023-03-02T14:49:53.886Z,6.59
2023-03-02T14:52:35.081Z,6.41
2023-03-02T14:55:27.765Z,6.32
2023-03-02T14:58:00.291Z,6.14
2023-03-02T15:00:29.419Z,6.13
2023-03-02T15:02:59.332Z,6.08
2023-03-02T15:05:32.366Z,5.98
2023-03-02T15:08:01.053Z,5.98
2023-03-02T15:10:30.681Z,5.86
2023-03-02T15:12:59.298Z,5.79
2023-03-02T15:15:27.924Z,5.70
2023-03-02T15:17:56.573Z,5.64
2023-03-02T15:20:25.223Z,5.61
2023-03-02T15:22:53.787Z,5.55
2023-03-02T15:25:24.256Z,5.39
2023-03-02T15:27:58.010Z,5.34
2023-03-02T15:30:30.671Z,5.25
2023-03-02T15:33:02.313Z,5.21
2023-03-02T15:35:31.036Z,5.12
2023-03-02T15:38:02.812Z,5.11
2023-03-02T15:40:31.626Z,5.06
2023-03-02T15:43:00.194Z,5.01
2023-03-02T15:45:29.296Z,4.90
2023-03-02T15:47:57.886Z,4.82
2023-03-02T15:50:26.512Z,4.76
2023-03-02T15:52:57.622Z,4.69
2023-03-02T15:55:27.312Z,4.59
2023-03-02T15:57:58.292Z,4.54
2023-03-02T16:00:27.120Z,4.52
2023-03-02T16:02:55.717Z,4.48
2023-03-02T16:05:24.465Z,4.44
2023-03-02T16:07:53.106Z,4.38
2023-03-02T16:10:24.541Z,4.41
2023-03-02T16:12:53.519Z,4.34
2023-03-02T16:15:22.176Z,4.36
2023-03-02T16:17:50.946Z,4.33
2023-03-02T16:20:19.648Z,4.31
2023-03-02T16:22:48.244Z,4.28
2023-03-02T16:25:16.954Z,4.24
2023-03-02T16:27:47.784Z,4.20
2023-03-02T16:30:16.554Z,4.13
2023-03-02T16:32:45.345Z,4.10
2023-03-02T16:35:14.053Z,4.07
2023-03-02T16:37:42.842Z,4.01
2023-03-02T16:40:12.370Z,4.00
2023-03-02T16:42:41.624Z,3.98
2023-03-02T16:45:11.137Z,3.97
2023-03-02T16:47:39.856Z,3.95
2023-03-02T16:50:09.663Z,3.94
2023-03-02T16:52:38.234Z,3.92
2023-03-02T16:55:14.827Z,3.90
2023-03-02T16:57:44.489Z,3.87
2023-03-02T17:00:16.692Z,3.84
2023-03-02T17:02:45.451Z,3.78
2023-03-02T17:05:17.324Z,3.76
2023-03-02T17:07:46.416Z,3.73
2023-03-02T17:10:21.916Z,3.72
2023-03-02T17:12:50.531Z,3.69
2023-03-02T17:15:19.881Z,3.67
2023-03-02T17:17:48.486Z,3.65
2023-03-02T17:20:17.175Z,3.60
2023-03-02T17:22:45.777Z,3.62
2023-03-02T17:25:15.482Z,3.60
2023-03-02T17:27:47.653Z,3.59
2023-03-02T17:30:16.735Z,3.55
2023-03-02T17:32:45.454Z,3.53
2023-03-02T17:35:15.601Z,3.51
2023-03-02T17:37:44.225Z,3.48
2023-03-02T17:40:15.602Z,3.46
2023-03-02T17:42:44.324Z,3.43
2023-03-02T17:45:19.502Z,3.41
2023-03-02T17:47:51.119Z,3.39
2023-03-02T17:50:23.012Z,3.35
2023-03-02T17:52:51.715Z,3.36
2023-03-02T17:55:20.717Z,3.34
2023-03-02T17:57:49.470Z,3.33
2023-03-02T18:00:21.873Z,3.31
2023-03-02T18:02:51.572Z,3.26
2023-03-02T18:05:21.714Z,3.29
2023-03-02T18:07:52.104Z,3.27
2023-03-02T18:10:20.740Z,3.26
2023-03-02T18:12:52.259Z,3.24
2023-03-02T18:15:22.424Z,3.23
2023-03-02T18:17:51.385Z,3.22
2023-03-02T18:20:20.256Z,3.20
2023-03-02T18:22:48.991Z,3.18
2023-03-02T18:25:17.717Z,3.15
2023-03-02T18:27:46.430Z,3.16
2023-03-02T18:30:15.906Z,3.14
2023-03-02T18:32:44.653Z,3.13
2023-03-02T18:35:14.160Z,3.12
2023-03-02T18:37:42.939Z,3.11
2023-03-02T18:40:12.711Z,3.09
2023-03-02T18:42:41.449Z,3.06
2023-03-02T18:45:26.490Z,3.05
2023-03-02T18:47:56.425Z,3.03
2023-03-02T18:50:26.309Z,3.01
2023-03-02T18:52:55.344Z,2.98
2023-03-02T18:55:25.439Z,2.96
2023-03-02T18:57:54.126Z,2.93
2023-03-02T19:00:28.391Z,2.82
2023-03-02T19:02:57.387Z,2.72
2023-03-02T19:05:27.474Z,2.64
2023-03-02T19:07:57.965Z,2.56
2023-03-02T19:10:26.633Z,2.47
2023-03-02T19:12:55.233Z,2.40
2023-03-02T19:15:25.269Z,2.31
2023-03-02T19:17:54.349Z,2.22
2023-03-02T19:20:23.291Z,2.17
2023-03-02T19:22:51.828Z,2.13
2023-03-02T19:25:21.329Z,2.04
2023-03-02T19:27:50.109Z,1.95
2023-03-02T19:30:25.894Z,1.91
2023-03-02T19:32:55.384Z,1.89
2023-03-02T19:35:27.389Z,1.87
2023-03-02T19:37:56.776Z,1.89
2023-03-02T19:40:29.008Z,1.89
2023-03-02T19:42:58.654Z,1.91
2023-03-02T19:45:32.622Z,1.94
2023-03-02T19:48:02.426Z,1.97
2023-03-02T19:50:31.525Z,1.98
2023-03-02T19:53:00.225Z,2.05
2023-03-02T19:55:28.907Z,2.10
2023-03-02T19:58:00.294Z,2.15
2023-03-02T20:00:32.794Z,2.20
2023-03-02T20:03:01.417Z,2.23
2023-03-02T20:05:30.841Z,2.25
2023-03-02T20:07:59.597Z,2.27
2023-03-02T20:10:35.127Z,2.28
2023-03-02T20:13:05.254Z,2.29
2023-03-02T20:15:40.569Z,2.30
2023-03-02T20:18:13.314Z,2.31
2023-03-02T20:20:42.987Z,2.31
2023-03-02T20:23:12.519Z,2.31
2023-03-02T20:25:41.831Z,2.30
2023-03-02T20:28:16.279Z,2.29
2023-03-02T20:30:58.781Z,2.26
2023-03-02T20:33:34.765Z,2.25
2023-03-02T20:36:04.548Z,2.24
2023-03-02T20:39:01.141Z,2.22
2023-03-02T20:41:30.457Z,2.21
2023-03-02T20:43:59.094Z,2.20
2023-03-02T20:46:34.816Z,2.19
2023-03-02T20:49:07.138Z,2.18
2023-03-02T20:51:37.721Z,2.18
2023-03-02T20:54:06.785Z,2.18
2023-03-02T20:56:35.509Z,2.17
2023-03-02T20:59:04.692Z,2.17
2023-03-02T21:01:33.486Z,2.16
2023-03-02T21:04:02.164Z,2.14
2023-03-02T21:06:33.650Z,2.16
2023-03-02T21:09:05.087Z,2.14
2023-03-02T21:11:35.451Z,2.15
2023-03-02T21:14:05.171Z,2.13
2023-03-02T21:16:39.524Z,2.12
2023-03-02T21:19:12.718Z,2.12
2023-03-02T21:21:42.709Z,2.10
2023-03-02T21:24:16.947Z,2.08
2023-03-02T21:26:47.957Z,2.06
2023-03-02T21:29:21.483Z,2.02
2023-03-02T21:31:51.280Z,2.04
2023-03-02T21:34:20.041Z,2.00
2023-03-02T21:36:50.994Z,2.02
2023-03-02T21:39:23.775Z,2.00
2023-03-02T21:41:53.750Z,1.98
2023-03-02T21:44:23.019Z,1.96
2023-03-02T21:46:51.673Z,1.94
2023-03-02T21:49:23.301Z,1.92
2023-03-02T21:51:52.008Z,1.90
2023-03-02T21:54:20.676Z,1.85
2023-03-02T21:56:49.921Z,1.77
2023-03-02T21:59:18.527Z,1.72
2023-03-02T22:01:47.230Z,1.66
2023-03-02T22:04:15.867Z,1.65
2023-03-02T22:06:44.525Z,1.64
2023-03-02T22:09:13.300Z,1.65
2023-03-02T22:11:42.816Z,1.64
2023-03-02T22:14:15.944Z,1.62
2023-03-02T22:16:48.214Z,1.61
2023-03-02T22:19:29.399Z,1.60
2023-03-02T22:22:00.685Z,1.59
2023-03-02T22:24:33.302Z,1.57
2023-03-02T22:27:39.137Z,1.56
2023-03-02T22:30:23.691Z,1.56
2023-03-02T22:32:52.310Z,1.54
2023-03-02T22:35:27.264Z,1.52
2023-03-02T22:38:12.049Z,1.49
2023-03-02T22:40:41.712Z,1.46
2023-03-02T22:43:30.678Z,1.43
2023-03-02T22:46:16.128Z,1.43
2023-03-02T22:48:48.745Z,1.45
2023-03-02T22:51:28.290Z,1.47
2023-03-02T22:54:01.479Z,1.45
2023-03-02T22:56:42.615Z,1.42
2023-03-02T22:59:24.995Z,1.43
2023-03-02T23:02:01.405Z,1.45
2023-03-02T23:04:37.451Z,1.48
2023-03-02T23:07:21.096Z,1.47
2023-03-02T23:09:49.828Z,1.44
2023-03-02T23:12:27.735Z,1.39
2023-03-02T23:14:58.869Z,1.34
2023-03-02T23:17:41.502Z,1.32
2023-03-02T23:20:13.396Z,1.27
2023-03-02T23:22:42.741Z,1.27
2023-03-02T23:25:11.518Z,1.25
2023-03-02T23:27:40.165Z,1.21
2023-03-02T23:30:10.072Z,1.16
2023-03-02T23:32:38.672Z,1.20
2023-03-02T23:35:07.915Z,1.18
2023-03-02T23:37:36.621Z,1.10
2023-03-02T23:40:06.154Z,1.08
2023-03-02T23:42:34.885Z,1.07
2023-03-02T23:45:03.667Z,1.11
2023-03-02T23:47:32.501Z,1.13
2023-03-02T23:50:01.297Z,1.14
2023-03-02T23:52:29.876Z,1.11
2023-03-02T23:54:59.158Z,1.11
2023-03-02T23:57:27.816Z,1.11
2023-03-02T23:59:56.390Z,1.10
